createdAt,value
2022-11-16T00:01:23.919Z,8.50
2022-11-16T00:03:51.112Z,8.50
2022-11-16T00:06:17.832Z,8.50
2022-11-16T00:08:44.730Z,8.60
2022-11-16T00:11:11.425Z,8.70
2022-11-16T00:13:38.213Z,8.60
2022-11-16T00:16:05.029Z,8.70
2022-11-16T00:18:32.163Z,8.50
2022-11-16T00:20:59.056Z,8.70
2022-11-16T00:23:25.772Z,8.70
2022-11-16T00:25:53.373Z,8.60
2022-11-16T00:28:20.006Z,8.40
2022-11-16T00:30:46.853Z,8.30
2022-11-16T00:33:13.484Z,8.30
2022-11-16T00:35:40.188Z,8.30
2022-11-16T00:38:07.142Z,8.50
2022-11-16T00:40:34.090Z,8.70
2022-11-16T00:43:03.841Z,8.70
2022-11-16T00:45:30.639Z,8.90
2022-11-16T00:48:00.420Z,8.80
2022-11-16T00:50:27.692Z,8.80
2022-11-16T00:52:54.707Z,8.80
2022-11-16T00:55:21.392Z,8.80
2022-11-16T00:57:48.282Z,8.70
2022-11-16T01:00:14.950Z,8.60
2022-11-16T01:02:43.000Z,8.60
2022-11-16T01:05:09.792Z,8.50
2022-11-16T01:07:36.661Z,8.50
2022-11-16T01:10:03.575Z,8.30
2022-11-16T01:12:30.306Z,8.20
2022-11-16T01:14:57.007Z,8.20
2022-11-16T01:17:23.681Z,8.10
2022-11-16T01:19:50.329Z,7.90
2022-11-16T01:22:17.018Z,7.90
2022-11-16T01:24:43.810Z,7.80
2022-11-16T01:27:10.446Z,7.70
2022-11-16T01:29:37.097Z,7.70
2022-11-16T01:32:04.738Z,7.60
2022-11-16T01:34:31.442Z,7.50
2022-11-16T01:36:59.340Z,7.50
2022-11-16T01:39:26.616Z,7.40
2022-11-16T01:41:53.388Z,7.30
2022-11-16T01:44:20.468Z,7.30
2022-11-16T01:46:47.277Z,7.20
2022-11-16T01:49:14.086Z,7.20
2022-11-16T01:51:41.094Z,7.20
2022-11-16T01:54:07.765Z,7.30
2022-11-16T01:56:34.517Z,7.30
2022-11-16T01:59:01.273Z,7.40
2022-11-16T02:01:28.133Z,7.40
2022-11-16T02:03:55.140Z,7.40
2022-11-16T02:06:21.962Z,7.50
2022-11-16T02:09:07.474Z,7.50
2022-11-16T02:11:34.495Z,7.70
2022-11-16T02:14:01.215Z,7.80
2022-11-16T02:16:27.823Z,7.90
2022-11-16T02:18:54.521Z,8.10
2022-11-16T02:21:21.446Z,8.00
2022-11-16T02:24:02.186Z,8.00
2022-11-16T02:26:39.398Z,8.00
2022-11-16T02:29:06.213Z,8.10
2022-11-16T02:31:32.939Z,8.00
2022-11-16T02:33:59.596Z,8.20
2022-11-16T02:36:28.533Z,8.40
2022-11-16T02:38:55.322Z,8.50
2022-11-16T02:41:22.183Z,8.60
2022-11-16T02:43:48.954Z,8.50
2022-11-16T02:46:15.606Z,8.60
2022-11-16T02:48:44.694Z,8.60
2022-11-16T02:51:11.638Z,8.60
2022-11-16T02:53:38.279Z,8.60
2022-11-16T02:56:04.897Z,8.60
2022-11-16T02:58:32.061Z,8.50
2022-11-16T03:00:59.030Z,8.40
2022-11-16T03:03:25.951Z,8.30
2022-11-16T03:05:52.708Z,8.30
2022-11-16T03:08:19.463Z,8.10
2022-11-16T03:11:05.054Z,8.10
2022-11-16T03:13:35.972Z,8.00
2022-11-16T03:16:06.188Z,7.90
2022-11-16T03:18:34.518Z,7.80
2022-11-16T03:21:01.715Z,7.80
2022-11-16T03:23:28.739Z,7.70
2022-11-16T03:25:55.838Z,7.70
2022-11-16T03:28:25.238Z,7.70
2022-11-16T03:30:51.880Z,7.70
2022-11-16T03:33:18.496Z,7.80
2022-11-16T03:35:47.592Z,7.80
2022-11-16T03:38:16.719Z,7.80
2022-11-16T03:40:43.439Z,7.80
2022-11-16T03:43:10.064Z,7.80
2022-11-16T03:45:36.938Z,7.80
2022-11-16T03:48:03.502Z,7.80
2022-11-16T03:50:30.166Z,7.90
2022-11-16T03:52:56.731Z,8.00
2022-11-16T03:55:23.785Z,8.00
2022-11-16T03:57:50.789Z,8.20
2022-11-16T04:00:17.440Z,8.20
2022-11-16T04:02:44.374Z,8.30
2022-11-16T04:05:29.847Z,8.40
2022-11-16T04:08:14.889Z,8.50
2022-11-16T04:11:00.086Z,8.50
2022-11-16T04:13:45.724Z,8.50
2022-11-16T04:16:31.362Z,8.50
2022-11-16T04:19:16.831Z,8.50
2022-11-16T04:22:02.147Z,8.50
2022-11-16T04:24:29.138Z,8.40
2022-11-16T04:27:14.627Z,8.40
2022-11-16T04:29:41.278Z,8.50
2022-11-16T04:32:26.758Z,8.50
2022-11-16T04:35:12.301Z,8.50
2022-11-16T04:37:52.816Z,8.40
2022-11-16T04:40:19.784Z,8.40
2022-11-16T04:42:46.394Z,8.40
2022-11-16T04:45:32.056Z,8.40
2022-11-16T04:47:59.000Z,8.30
2022-11-16T04:50:25.903Z,8.40
2022-11-16T04:52:53.001Z,8.30
2022-11-16T04:55:19.932Z,8.30
2022-11-16T04:57:46.907Z,8.20
2022-11-16T05:00:13.774Z,8.10
2022-11-16T05:02:40.693Z,8.10
2022-11-16T05:05:07.348Z,8.00
2022-11-16T05:07:34.042Z,8.00
2022-11-16T05:10:00.620Z,8.00
2022-11-16T05:12:27.174Z,7.90
2022-11-16T05:14:55.293Z,7.90
2022-11-16T05:17:22.125Z,7.90
2022-11-16T05:20:07.546Z,7.90
2022-11-16T05:22:34.210Z,7.80
2022-11-16T05:25:00.826Z,7.80
2022-11-16T05:27:27.464Z,7.70
2022-11-16T05:29:55.011Z,7.70
2022-11-16T05:32:21.718Z,7.70
2022-11-16T05:34:48.465Z,7.70
2022-11-16T05:37:15.141Z,7.60
2022-11-16T05:39:42.103Z,7.60
2022-11-16T05:42:08.768Z,7.60
2022-11-16T05:44:35.755Z,7.60
2022-11-16T05:47:02.505Z,7.50
2022-11-16T05:49:29.154Z,7.50
2022-11-16T05:51:55.841Z,7.50
2022-11-16T05:54:23.426Z,7.50
2022-11-16T05:56:50.238Z,7.50
2022-11-16T05:59:17.026Z,7.60
2022-11-16T06:01:43.675Z,7.60
2022-11-16T06:04:10.470Z,7.60
2022-11-16T06:06:37.164Z,7.70
2022-11-16T06:09:03.860Z,7.70
2022-11-16T06:11:35.532Z,7.80
2022-11-16T06:14:02.946Z,7.80
2022-11-16T06:16:29.596Z,7.90
2022-11-16T06:18:56.324Z,7.90
2022-11-16T06:21:22.975Z,8.00
2022-11-16T06:23:49.945Z,8.00
2022-11-16T06:26:16.764Z,8.00
2022-11-16T06:28:43.504Z,8.00
2022-11-16T06:31:10.260Z,8.10
2022-11-16T06:33:37.291Z,8.10
2022-11-16T06:36:07.300Z,8.10
2022-11-16T06:38:36.565Z,8.10
2022-11-16T06:41:03.459Z,8.10
2022-11-16T06:43:34.422Z,8.20
2022-11-16T06:46:01.548Z,8.20
2022-11-16T06:48:28.800Z,8.20
2022-11-16T06:50:55.845Z,8.20
2022-11-16T06:53:28.781Z,8.20
2022-11-16T06:56:01.897Z,8.20
2022-11-16T06:58:28.583Z,8.20
2022-11-16T07:00:55.353Z,8.20
2022-11-16T07:03:22.146Z,8.20
2022-11-16T07:05:48.880Z,8.30
2022-11-16T07:08:15.636Z,8.30
2022-11-16T07:10:45.132Z,8.30
2022-11-16T07:13:11.947Z,8.20
2022-11-16T07:15:53.758Z,8.20
2022-11-16T07:18:21.442Z,8.20
2022-11-16T07:20:49.421Z,8.30
2022-11-16T07:23:17.414Z,8.20
2022-11-16T07:25:46.870Z,8.20
2022-11-16T07:28:13.676Z,8.20
2022-11-16T07:30:41.633Z,8.20
2022-11-16T07:33:08.375Z,8.20
2022-11-16T07:35:35.110Z,8.20
2022-11-16T07:38:02.154Z,8.30
2022-11-16T07:40:29.317Z,8.30
2022-11-16T07:42:56.129Z,8.30
2022-11-16T07:45:22.773Z,8.30
2022-11-16T07:47:52.695Z,8.40
2022-11-16T07:50:19.674Z,8.40
2022-11-16T07:52:46.831Z,8.40
2022-11-16T07:55:21.480Z,8.40
2022-11-16T07:57:53.053Z,8.40
2022-11-16T08:00:21.840Z,8.40
2022-11-16T08:02:48.543Z,8.40
2022-11-16T08:05:15.232Z,8.40
2022-11-16T08:07:41.943Z,8.40
2022-11-16T08:10:08.826Z,8.40
2022-11-16T08:12:35.626Z,8.40
2022-11-16T08:15:02.379Z,8.50
2022-11-16T08:17:28.949Z,8.50
2022-11-16T08:19:55.980Z,8.50
2022-11-16T08:22:22.833Z,8.50
2022-11-16T08:24:49.520Z,8.50
2022-11-16T08:27:17.635Z,8.60
2022-11-16T08:29:44.273Z,8.60
2022-11-16T08:32:11.289Z,8.60
2022-11-16T08:34:38.561Z,8.60
2022-11-16T08:37:05.499Z,8.60
2022-11-16T08:39:32.432Z,8.60
2022-11-16T08:42:00.134Z,8.70
2022-11-16T08:44:27.178Z,8.70
2022-11-16T08:46:54.213Z,8.70
2022-11-16T08:49:21.549Z,8.80
2022-11-16T08:51:51.072Z,8.80
2022-11-16T08:54:18.086Z,8.80
2022-11-16T08:56:45.565Z,8.90
2022-11-16T08:59:12.786Z,8.90
2022-11-16T09:01:39.548Z,8.90
2022-11-16T09:04:06.399Z,8.90
2022-11-16T09:06:33.322Z,8.90
2022-11-16T09:09:02.909Z,8.90
2022-11-16T09:11:29.714Z,8.90
2022-11-16T09:13:56.915Z,8.90
2022-11-16T09:16:24.320Z,9.00
2022-11-16T09:18:50.929Z,9.00
2022-11-16T09:21:17.544Z,9.00
2022-11-16T09:23:44.200Z,9.00
2022-11-16T09:26:10.847Z,9.00
2022-11-16T09:28:37.721Z,9.10
2022-11-16T09:31:06.062Z,9.20
2022-11-16T09:33:33.060Z,9.20
2022-11-16T09:35:59.960Z,9.30
2022-11-16T09:38:40.325Z,9.40
2022-11-16T09:41:13.177Z,9.60
2022-11-16T09:43:45.616Z,9.70
2022-11-16T09:46:12.920Z,9.80
2022-11-16T09:48:39.834Z,9.80
2022-11-16T09:51:08.291Z,9.80
2022-11-16T09:53:35.149Z,9.80
2022-11-16T09:56:02.766Z,9.90
2022-11-16T09:58:31.430Z,9.80
2022-11-16T10:00:58.350Z,9.80
2022-11-16T10:03:28.435Z,9.80
2022-11-16T10:05:55.313Z,9.90
2022-11-16T10:08:22.072Z,9.90
2022-11-16T10:10:48.839Z,9.90
2022-11-16T10:13:15.747Z,9.80
2022-11-16T10:15:42.797Z,9.80
2022-11-16T10:18:09.533Z,9.90
2022-11-16T10:20:36.583Z,9.80
2022-11-16T10:23:03.791Z,9.80
2022-11-16T10:25:30.712Z,9.90
2022-11-16T10:27:57.915Z,9.80
2022-11-16T10:30:24.815Z,9.90
2022-11-16T10:32:51.755Z,10.10
2022-11-16T10:35:18.481Z,10.10
2022-11-16T10:37:45.074Z,10.10
2022-11-16T10:40:11.960Z,10.20
2022-11-16T10:42:39.542Z,10.10
2022-11-16T10:45:06.199Z,10.10
2022-11-16T10:47:34.074Z,10.10
2022-11-16T10:50:00.957Z,10.10
2022-11-16T10:52:27.905Z,10.10
2022-11-16T10:54:54.759Z,10.10
2022-11-16T10:57:24.043Z,10.20
2022-11-16T10:59:50.931Z,10.20
2022-11-16T11:02:17.959Z,10.20
2022-11-16T11:04:44.865Z,10.30
2022-11-16T11:07:11.633Z,10.50
2022-11-16T11:09:38.478Z,10.50
2022-11-16T11:12:23.925Z,10.50
2022-11-16T11:14:53.348Z,10.40
2022-11-16T11:17:20.224Z,10.50
2022-11-16T11:19:46.830Z,10.50
2022-11-16T11:22:13.446Z,10.50
2022-11-16T11:24:44.855Z,10.60
2022-11-16T11:27:12.318Z,10.50
2022-11-16T11:29:39.538Z,10.40
2022-11-16T11:32:06.437Z,10.40
2022-11-16T11:34:33.038Z,10.60
2022-11-16T11:36:59.621Z,10.60
2022-11-16T11:39:26.349Z,10.60
2022-11-16T11:41:53.163Z,10.60
2022-11-16T11:44:19.775Z,10.70
2022-11-16T11:47:35.068Z,10.80
2022-11-16T11:49:34.050Z,10.80
2022-11-16T11:52:00.733Z,10.90
2022-11-16T11:54:27.371Z,11.10
2022-11-16T11:56:54.367Z,11.10
2022-11-16T11:59:21.250Z,10.90
2022-11-16T12:01:48.269Z,11.00
2022-11-16T12:04:14.903Z,10.90
2022-11-16T12:06:44.080Z,11.00
2022-11-16T12:09:11.404Z,11.00
2022-11-16T12:11:38.128Z,10.90
2022-11-16T12:14:04.794Z,10.90
2022-11-16T12:16:31.552Z,10.90
2022-11-16T12:18:58.539Z,10.80
2022-11-16T12:21:25.236Z,10.90
2022-11-16T12:23:51.830Z,11.10
2022-11-16T12:26:18.515Z,11.00
2022-11-16T12:28:50.827Z,10.80
2022-11-16T12:31:17.847Z,10.90
2022-11-16T12:33:44.482Z,10.90
2022-11-16T12:36:11.322Z,10.90
2022-11-16T12:38:38.430Z,11.00
2022-11-16T12:41:05.377Z,11.00
2022-11-16T12:43:32.550Z,10.90
2022-11-16T12:45:59.656Z,10.90
2022-11-16T12:48:26.683Z,11.00
2022-11-16T12:50:53.668Z,11.10
2022-11-16T12:53:20.618Z,11.30
2022-11-16T12:55:47.295Z,11.30
2022-11-16T12:58:13.880Z,11.30
2022-11-16T13:00:41.084Z,11.40
2022-11-16T13:03:07.763Z,11.30
2022-11-16T13:05:34.359Z,11.40
2022-11-16T13:08:00.980Z,11.40
2022-11-16T13:10:28.107Z,11.40
2022-11-16T13:13:09.055Z,11.30
2022-11-16T13:15:41.360Z,11.20
2022-11-16T13:18:07.933Z,11.30
2022-11-16T13:20:34.567Z,11.30
2022-11-16T13:23:01.214Z,11.30
2022-11-16T13:25:27.931Z,11.40
2022-11-16T13:27:55.562Z,11.30
2022-11-16T13:30:22.158Z,11.30
2022-11-16T13:32:48.942Z,11.40
2022-11-16T13:35:15.677Z,11.40
2022-11-16T13:37:42.362Z,11.40
2022-11-16T13:40:09.067Z,11.50
2022-11-16T13:42:35.757Z,11.50
2022-11-16T13:45:02.362Z,11.50
2022-11-16T13:47:30.479Z,11.50
2022-11-16T13:49:57.532Z,11.40
2022-11-16T13:52:28.738Z,11.40
2022-11-16T13:55:03.209Z,11.40
2022-11-16T13:57:29.835Z,11.40
2022-11-16T13:59:56.526Z,11.30
2022-11-16T14:02:23.454Z,11.30
2022-11-16T14:04:50.064Z,11.30
2022-11-16T14:07:16.914Z,11.30
2022-11-16T14:09:43.696Z,11.20
2022-11-16T14:12:10.384Z,11.20
2022-11-16T14:14:37.021Z,11.20
2022-11-16T14:17:03.591Z,11.20
2022-11-16T14:19:30.207Z,11.20
2022-11-16T14:21:56.779Z,11.20
2022-11-16T14:24:23.697Z,11.10
2022-11-16T14:26:50.361Z,11.10
2022-11-16T14:29:16.956Z,11.00
2022-11-16T14:31:43.667Z,11.00
2022-11-16T14:34:10.269Z,11.00
2022-11-16T14:36:37.515Z,10.90
2022-11-16T14:39:04.643Z,10.90
2022-11-16T14:41:31.297Z,10.80
2022-11-16T14:43:58.632Z,10.90
2022-11-16T14:46:26.294Z,10.90
2022-11-16T14:48:53.076Z,10.90
2022-11-16T14:51:19.757Z,10.90
2022-11-16T14:53:46.366Z,10.90
2022-11-16T14:56:13.064Z,10.90
2022-11-16T14:58:39.795Z,10.80
2022-11-16T15:01:06.405Z,10.90
2022-11-16T15:03:33.492Z,10.80
2022-11-16T15:06:00.380Z,10.80
2022-11-16T15:08:26.973Z,10.90
2022-11-16T15:10:53.879Z,10.80
2022-11-16T15:13:20.556Z,10.80
2022-11-16T15:15:47.289Z,10.80
2022-11-16T15:18:15.175Z,10.80
2022-11-16T15:20:42.317Z,10.80
2022-11-16T15:23:09.442Z,10.80
2022-11-16T15:25:36.401Z,10.80
2022-11-16T15:28:03.377Z,10.80
2022-11-16T15:30:30.506Z,10.80
2022-11-16T15:32:57.460Z,10.80
2022-11-16T15:35:24.359Z,10.70
2022-11-16T15:37:51.116Z,10.70
2022-11-16T15:40:18.160Z,10.70
2022-11-16T15:42:44.790Z,10.60
2022-11-16T15:45:15.627Z,10.60
2022-11-16T15:47:42.973Z,10.60
2022-11-16T15:50:10.339Z,10.60
2022-11-16T15:52:37.251Z,10.70
2022-11-16T15:55:04.290Z,10.60
2022-11-16T15:57:35.125Z,10.60
2022-11-16T16:00:02.117Z,10.50
2022-11-16T16:02:29.072Z,10.60
2022-11-16T16:04:56.070Z,10.50
2022-11-16T16:07:22.981Z,10.60
2022-11-16T16:09:50.220Z,10.70
2022-11-16T16:12:17.350Z,10.60
2022-11-16T16:14:44.285Z,10.60
2022-11-16T16:17:11.302Z,10.60
2022-11-16T16:19:38.490Z,10.60
2022-11-16T16:22:09.598Z,10.50
2022-11-16T16:24:36.531Z,10.50
2022-11-16T16:27:03.636Z,10.50
2022-11-16T16:29:30.427Z,10.50
2022-11-16T16:31:57.094Z,10.50
2022-11-16T16:34:23.963Z,10.50
2022-11-16T16:36:51.124Z,10.50
2022-11-16T16:39:18.302Z,10.50
2022-11-16T16:41:45.545Z,10.50
2022-11-16T16:44:13.766Z,10.50
2022-11-16T16:46:40.610Z,10.60
2022-11-16T16:49:08.402Z,10.60
2022-11-16T16:51:35.432Z,10.60
2022-11-16T16:54:02.076Z,10.60
2022-11-16T16:56:29.565Z,10.60
2022-11-16T16:58:56.719Z,10.60
2022-11-16T17:01:24.656Z,10.60
2022-11-16T17:03:51.714Z,10.70
2022-11-16T17:06:19.402Z,10.70
2022-11-16T17:08:46.427Z,10.70
2022-11-16T17:11:15.960Z,10.70
2022-11-16T17:13:43.194Z,10.70
2022-11-16T17:16:10.043Z,10.80
2022-11-16T17:18:37.114Z,10.80
2022-11-16T17:21:04.308Z,10.80
2022-11-16T17:23:31.484Z,10.80
2022-11-16T17:25:58.669Z,10.80
2022-11-16T17:28:25.373Z,10.80
2022-11-16T17:30:51.974Z,10.70
2022-11-16T17:33:18.845Z,10.70
2022-11-16T17:35:45.893Z,10.70
2022-11-16T17:38:13.190Z,10.60
2022-11-16T17:40:40.224Z,10.60
2022-11-16T17:43:07.181Z,10.60
2022-11-16T17:45:34.093Z,10.60
2022-11-16T17:48:01.216Z,10.60
2022-11-16T17:50:28.292Z,10.50
2022-11-16T17:52:57.925Z,10.50
2022-11-16T17:55:24.921Z,10.40
2022-11-16T17:57:51.924Z,10.40
2022-11-16T18:00:21.869Z,10.40
2022-11-16T18:02:49.030Z,10.40
2022-11-16T18:05:16.017Z,10.40
2022-11-16T18:07:43.143Z,10.40
2022-11-16T18:10:12.687Z,10.40
2022-11-16T18:12:42.135Z,10.40
2022-11-16T18:17:56.248Z,10.30
2022-11-16T18:20:24.629Z,10.30
2022-11-16T18:22:51.719Z,10.20
2022-11-16T18:25:18.750Z,10.20
2022-11-16T18:27:45.879Z,10.20
2022-11-16T18:30:13.712Z,10.20
2022-11-16T18:32:40.590Z,10.20
2022-11-16T18:35:10.374Z,10.20
2022-11-16T18:37:37.635Z,10.10
2022-11-16T18:40:04.977Z,10.10
2022-11-16T18:42:31.911Z,10.10
2022-11-16T18:44:58.934Z,10.00
2022-11-16T18:47:26.069Z,10.00
2022-11-16T18:49:52.974Z,10.00
2022-11-16T18:52:20.154Z,10.00
2022-11-16T18:54:47.227Z,10.00
2022-11-16T18:57:14.389Z,10.00
2022-11-16T18:59:41.342Z,10.10
2022-11-16T19:02:08.399Z,10.00
2022-11-16T19:04:35.723Z,10.00
2022-11-16T19:07:02.981Z,9.90
2022-11-16T19:09:30.167Z,10.00
2022-11-16T19:11:57.288Z,10.00
2022-11-16T19:14:24.278Z,9.90
2022-11-16T19:16:56.697Z,9.90
2022-11-16T19:19:24.781Z,10.00
2022-11-16T19:21:52.374Z,10.00
2022-11-16T19:24:19.505Z,10.00
2022-11-16T19:26:46.610Z,9.90
2022-11-16T19:29:13.732Z,9.90
2022-11-16T19:31:40.750Z,9.90
2022-11-16T19:34:07.793Z,9.90
2022-11-16T19:36:34.777Z,9.90
2022-11-16T19:39:01.770Z,9.80
2022-11-16T19:41:28.704Z,9.90
2022-11-16T19:44:02.040Z,9.90
2022-11-16T19:46:29.638Z,9.90
2022-11-16T19:48:56.698Z,9.90
2022-11-16T19:51:23.692Z,9.90
2022-11-16T19:53:50.721Z,9.90
2022-11-16T19:56:17.686Z,9.80
2022-11-16T19:58:44.705Z,9.80
2022-11-16T20:01:11.845Z,9.70
2022-11-16T20:03:46.463Z,9.60
2022-11-16T20:06:13.713Z,9.60
2022-11-16T20:08:40.869Z,9.60
2022-11-16T20:11:07.862Z,9.50
2022-11-16T20:13:35.371Z,9.50
2022-11-16T20:16:02.481Z,9.50
2022-11-16T20:18:30.427Z,9.50
2022-11-16T20:20:57.512Z,9.50
2022-11-16T20:23:26.882Z,9.50
2022-11-16T20:25:53.905Z,9.50
2022-11-16T20:28:23.397Z,9.60
2022-11-16T20:30:50.525Z,9.50
2022-11-16T20:33:17.454Z,9.60
2022-11-16T20:35:44.452Z,9.50
2022-11-16T20:38:11.495Z,9.60
2022-11-16T20:40:38.452Z,9.60
2022-11-16T20:43:05.596Z,9.60
2022-11-16T20:45:35.534Z,9.60
2022-11-16T20:48:02.851Z,9.60
2022-11-16T20:50:30.041Z,9.60
2022-11-16T20:52:57.693Z,9.70
2022-11-16T20:55:24.789Z,9.70
2022-11-16T20:57:52.094Z,9.70
2022-11-16T21:00:19.199Z,9.70
2022-11-16T21:02:48.709Z,9.70
2022-11-16T21:05:18.147Z,9.80
2022-11-16T21:07:45.364Z,9.90
2022-11-16T21:10:34.952Z,9.90
2022-11-16T21:13:20.827Z,10.10
2022-11-16T21:15:47.986Z,10.10
2022-11-16T21:18:15.070Z,10.30
2022-11-16T21:20:42.182Z,10.30
2022-11-16T21:23:09.132Z,10.40
2022-11-16T21:25:37.844Z,10.40
2022-11-16T21:28:04.901Z,10.40
2022-11-16T21:30:33.985Z,10.40
2022-11-16T21:33:01.174Z,10.40
2022-11-16T21:35:28.155Z,10.30
2022-11-16T21:37:55.306Z,10.30
2022-11-16T21:40:22.456Z,10.30
2022-11-16T21:42:50.460Z,10.30
2022-11-16T21:45:17.570Z,10.20
2022-11-16T21:47:44.603Z,10.20
2022-11-16T21:52:58.672Z,10.20
2022-11-16T21:55:25.633Z,10.10
2022-11-16T21:57:52.592Z,10.10
2022-11-16T22:00:19.803Z,10.00
2022-11-16T22:02:46.776Z,10.00
2022-11-16T22:05:32.534Z,10.10
2022-11-16T22:07:59.522Z,10.10
2022-11-16T22:10:26.536Z,10.10
2022-11-16T22:12:56.187Z,10.10
2022-11-16T22:15:23.214Z,10.10
2022-11-16T22:17:53.111Z,10.10
2022-11-16T22:20:20.123Z,10.10
2022-11-16T22:22:47.090Z,10.10
2022-11-16T22:25:17.219Z,10.10
2022-11-16T22:28:06.082Z,10.10
2022-11-16T22:30:31.490Z,10.10
2022-11-16T22:32:58.724Z,10.10
2022-11-16T22:35:25.914Z,10.10
2022-11-16T22:37:53.123Z,10.20
2022-11-16T22:40:20.123Z,10.20
2022-11-16T22:42:47.032Z,10.20
2022-11-16T22:45:14.198Z,10.40
2022-11-16T22:47:41.115Z,10.40
2022-11-16T22:50:08.078Z,10.60
2022-11-16T22:52:35.052Z,10.60
2022-11-16T22:55:01.711Z,10.70
2022-11-16T22:57:30.957Z,10.60
2022-11-16T22:59:59.388Z,10.70
2022-11-16T23:02:28.521Z,10.60
2022-11-16T23:04:55.633Z,10.70
2022-11-16T23:07:22.769Z,10.70
2022-11-16T23:09:49.802Z,10.70
2022-11-16T23:12:36.507Z,10.70
2022-11-16T23:15:35.819Z,10.70
2022-11-16T23:18:02.801Z,10.70
2022-11-16T23:20:48.336Z,10.70
2022-11-16T23:23:33.999Z,10.60
2022-11-16T23:26:19.941Z,10.60
2022-11-16T23:28:47.124Z,10.70
2022-11-16T23:31:14.062Z,10.70
2022-11-16T23:33:44.182Z,10.80
2022-11-16T23:36:11.298Z,10.70
2022-11-16T23:38:38.235Z,10.80
2022-11-16T23:41:25.101Z,10.70
2022-11-16T23:44:00.766Z,10.70
2022-11-16T23:46:27.888Z,10.70
2022-11-16T23:48:54.803Z,10.70
2022-11-16T23:51:23.594Z,10.90
2022-11-16T23:53:51.046Z,10.90
2022-11-16T23:56:18.449Z,10.90
2022-11-16T23:58:45.448Z,11.00
